sensor_id;sensor_type;location;lat;lon;timestamp;P1;durP1;ratioP1;P2;durP2;ratioP2
54787;SDS011;59598;48.112;16.280;2022-12-18T00:00:17;13.07;;;8.45;;
54787;SDS011;59598;48.112;16.280;2022-12-18T00:02:51;18.77;;;9.48;;
54787;SDS011;59598;48.112;16.280;2022-12-18T00:05:28;13.68;;;6.40;;
54787;SDS011;59598;48.112;16.280;2022-12-18T00:08:00;17.23;;;8.00;;
54787;SDS011;59598;48.112;16.280;2022-12-18T00:10:31;15.98;;;8.93;;
54787;SDS011;59598;48.112;16.280;2022-12-18T00:13:03;14.98;;;8.50;;
54787;SDS011;59598;48.112;16.280;2022-12-18T00:15:42;13.77;;;7.22;;
54787;SDS011;59598;48.112;16.280;2022-12-18T00:18:16;16.35;;;8.88;;
54787;SDS011;59598;48.112;16.280;2022-12-18T00:20:47;15.27;;;8.85;;
54787;SDS011;59598;48.112;16.280;2022-12-18T00:23:19;15.13;;;9.05;;
54787;SDS011;59598;48.112;16.280;2022-12-18T00:25:51;14.25;;;8.15;;
54787;SDS011;59598;48.112;16.280;2022-12-18T00:28:28;17.48;;;9.55;;
54787;SDS011;59598;48.112;16.280;2022-12-18T00:31:09;22.57;;;11.03;;
54787;SDS011;59598;48.112;16.280;2022-12-18T00:33:56;17.90;;;9.77;;
54787;SDS011;59598;48.112;16.280;2022-12-18T00:36:31;24.03;;;10.97;;
54787;SDS011;59598;48.112;16.280;2022-12-18T00:39:09;22.07;;;10.17;;
54787;SDS011;59598;48.112;16.280;2022-12-18T00:41:47;19.50;;;10.00;;
54787;SDS011;59598;48.112;16.280;2022-12-18T00:44:39;18.50;;;10.10;;
54787;SDS011;59598;48.112;16.280;2022-12-18T00:47:11;23.92;;;11.40;;
54787;SDS011;59598;48.112;16.280;2022-12-18T00:49:45;17.75;;;8.73;;
54787;SDS011;59598;48.112;16.280;2022-12-18T00:52:16;14.87;;;8.67;;
54787;SDS011;59598;48.112;16.280;2022-12-18T00:54:53;17.17;;;9.40;;
54787;SDS011;59598;48.112;16.280;2022-12-18T00:57:27;23.92;;;10.40;;
54787;SDS011;59598;48.112;16.280;2022-12-18T00:59:58;17.83;;;9.32;;
54787;SDS011;59598;48.112;16.280;2022-12-18T01:02:30;22.20;;;10.90;;
54787;SDS011;59598;48.112;16.280;2022-12-18T01:05:08;19.63;;;10.17;;
54787;SDS011;59598;48.112;16.280;2022-12-18T01:07:44;22.63;;;11.00;;
54787;SDS011;59598;48.112;16.280;2022-12-18T01:10:24;20.80;;;10.27;;
54787;SDS011;59598;48.112;16.280;2022-12-18T01:12:57;23.55;;;11.15;;
54787;SDS011;59598;48.112;16.280;2022-12-18T01:15:30;17.80;;;10.63;;
54787;SDS011;59598;48.112;16.280;2022-12-18T01:18:02;21.53;;;12.13;;
54787;SDS011;59598;48.112;16.280;2022-12-18T01:20:36;26.42;;;12.68;;
54787;SDS011;59598;48.112;16.280;2022-12-18T01:23:09;25.83;;;11.03;;
54787;SDS011;59598;48.112;16.280;2022-12-18T01:25:40;21.83;;;10.20;;
54787;SDS011;59598;48.112;16.280;2022-12-18T01:28:11;24.03;;;11.23;;
54787;SDS011;59598;48.112;16.280;2022-12-18T01:30:46;18.37;;;9.47;;
54787;SDS011;59598;48.112;16.280;2022-12-18T01:33:20;18.75;;;9.52;;
54787;SDS011;59598;48.112;16.280;2022-12-18T01:35:57;24.13;;;10.93;;
54787;SDS011;59598;48.112;16.280;2022-12-18T01:38:31;21.77;;;10.20;;
54787;SDS011;59598;48.112;16.280;2022-12-18T01:41:02;20.70;;;9.20;;
54787;SDS011;59598;48.112;16.280;2022-12-18T01:43:50;22.05;;;10.05;;
54787;SDS011;59598;48.112;16.280;2022-12-18T01:46:24;26.27;;;10.70;;
54787;SDS011;59598;48.112;16.280;2022-12-18T01:49:07;14.17;;;9.10;;
54787;SDS011;59598;48.112;16.280;2022-12-18T01:51:39;15.77;;;8.10;;
54787;SDS011;59598;48.112;16.280;2022-12-18T01:54:10;16.70;;;8.10;;
54787;SDS011;59598;48.112;16.280;2022-12-18T01:56:50;16.47;;;9.00;;
54787;SDS011;59598;48.112;16.280;2022-12-18T01:59:24;22.57;;;8.53;;
54787;SDS011;59598;48.112;16.280;2022-12-18T02:01:58;17.30;;;8.93;;
54787;SDS011;59598;48.112;16.280;2022-12-18T02:04:37;16.67;;;7.63;;
54787;SDS011;59598;48.112;16.280;2022-12-18T02:07:35;14.60;;;8.70;;
54787;SDS011;59598;48.112;16.280;2022-12-18T02:10:27;13.77;;;9.03;;
54787;SDS011;59598;48.112;16.280;2022-12-18T02:13:27;14.53;;;7.83;;
54787;SDS011;59598;48.112;16.280;2022-12-18T02:19:03;12.25;;;8.20;;
54787;SDS011;59598;48.112;16.280;2022-12-18T02:25:58;8.63;;;5.87;;
54787;SDS011;59598;48.112;16.280;2022-12-18T02:28:47;11.70;;;7.90;;
54787;SDS011;59598;48.112;16.280;2022-12-18T02:32:00;11.50;;;7.93;;
54787;SDS011;59598;48.112;16.280;2022-12-18T02:34:40;13.93;;;7.20;;
54787;SDS011;59598;48.112;16.280;2022-12-18T02:37:17;12.50;;;8.03;;
54787;SDS011;59598;48.112;16.280;2022-12-18T02:39:56;11.27;;;6.00;;
54787;SDS011;59598;48.112;16.280;2022-12-18T02:42:34;14.47;;;8.77;;
54787;SDS011;59598;48.112;16.280;2022-12-18T02:45:09;17.27;;;8.97;;
54787;SDS011;59598;48.112;16.280;2022-12-18T02:47:42;14.80;;;8.37;;
54787;SDS011;59598;48.112;16.280;2022-12-18T02:56:19;13.30;;;6.90;;
54787;SDS011;59598;48.112;16.280;2022-12-18T02:59:22;11.83;;;6.80;;
54787;SDS011;59598;48.112;16.280;2022-12-18T03:05:00;11.53;;;6.57;;
54787;SDS011;59598;48.112;16.280;2022-12-18T03:07:42;12.07;;;7.17;;
54787;SDS011;59598;48.112;16.280;2022-12-18T03:10:37;15.23;;;8.03;;
54787;SDS011;59598;48.112;16.280;2022-12-18T03:13:42;10.97;;;5.97;;
54787;SDS011;59598;48.112;16.280;2022-12-18T03:16:28;13.93;;;7.00;;
54787;SDS011;59598;48.112;16.280;2022-12-18T03:19:08;12.73;;;6.43;;
54787;SDS011;59598;48.112;16.280;2022-12-18T03:21:53;14.77;;;7.97;;
54787;SDS011;59598;48.112;16.280;2022-12-18T03:27:14;9.47;;;5.87;;
54787;SDS011;59598;48.112;16.280;2022-12-18T03:29:53;9.13;;;5.73;;
54787;SDS011;59598;48.112;16.280;2022-12-18T03:32:52;11.37;;;6.40;;
54787;SDS011;59598;48.112;16.280;2022-12-18T03:35:50;10.67;;;6.60;;
54787;SDS011;59598;48.112;16.280;2022-12-18T03:38:28;15.57;;;7.60;;
54787;SDS011;59598;48.112;16.280;2022-12-18T03:43:57;11.83;;;6.00;;
54787;SDS011;59598;48.112;16.280;2022-12-18T03:49:25;9.87;;;6.90;;
54787;SDS011;59598;48.112;16.280;2022-12-18T03:52:23;8.73;;;5.33;;
54787;SDS011;59598;48.112;16.280;2022-12-18T03:55:13;8.70;;;5.73;;
54787;SDS011;59598;48.112;16.280;2022-12-18T03:57:51;8.50;;;6.70;;
54787;SDS011;59598;48.112;16.280;2022-12-18T04:00:27;11.20;;;6.73;;
54787;SDS011;59598;48.112;16.280;2022-12-18T04:03:06;8.27;;;4.90;;
54787;SDS011;59598;48.112;16.280;2022-12-18T04:05:39;10.83;;;7.20;;
54787;SDS011;59598;48.112;16.280;2022-12-18T04:08:14;9.57;;;5.53;;
54787;SDS011;59598;48.112;16.280;2022-12-18T04:10:45;11.43;;;6.73;;
54787;SDS011;59598;48.112;16.280;2022-12-18T04:13:23;12.60;;;6.20;;
54787;SDS011;59598;48.112;16.280;2022-12-18T04:15:59;11.00;;;4.53;;
54787;SDS011;59598;48.112;16.280;2022-12-18T04:18:34;13.40;;;6.50;;
54787;SDS011;59598;48.112;16.280;2022-12-18T04:21:06;8.57;;;6.40;;
54787;SDS011;59598;48.112;16.280;2022-12-18T04:23:40;8.65;;;5.78;;
54787;SDS011;59598;48.112;16.280;2022-12-18T04:26:14;12.00;;;6.67;;
54787;SDS011;59598;48.112;16.280;2022-12-18T04:28:46;10.43;;;6.90;;
54787;SDS011;59598;48.112;16.280;2022-12-18T04:31:18;12.53;;;8.10;;
54787;SDS011;59598;48.112;16.280;2022-12-18T04:36:26;8.50;;;5.30;;
54787;SDS011;59598;48.112;16.280;2022-12-18T04:38:58;12.20;;;7.63;;
54787;SDS011;59598;48.112;16.280;2022-12-18T04:41:30;9.40;;;5.00;;
54787;SDS011;59598;48.112;16.280;2022-12-18T04:44:07;10.27;;;5.77;;
54787;SDS011;59598;48.112;16.280;2022-12-18T04:46:38;7.33;;;5.13;;
54787;SDS011;59598;48.112;16.280;2022-12-18T04:49:15;10.23;;;6.17;;
54787;SDS011;59598;48.112;16.280;2022-12-18T04:54:23;11.25;;;7.13;;
54787;SDS011;59598;48.112;16.280;2022-12-18T04:59:31;9.60;;;4.57;;
54787;SDS011;59598;48.112;16.280;2022-12-18T05:02:02;7.97;;;4.97;;
54787;SDS011;59598;48.112;16.280;2022-12-18T05:04:36;10.75;;;7.47;;
54787;SDS011;59598;48.112;16.280;2022-12-18T05:07:11;10.20;;;5.77;;
54787;SDS011;59598;48.112;16.280;2022-12-18T05:09:48;7.30;;;5.97;;
54787;SDS011;59598;48.112;16.280;2022-12-18T05:12:22;12.80;;;6.28;;
54787;SDS011;59598;48.112;16.280;2022-12-18T05:14:59;5.77;;;4.57;;
54787;SDS011;59598;48.112;16.280;2022-12-18T05:17:38;12.17;;;5.80;;
54787;SDS011;59598;48.112;16.280;2022-12-18T05:20:10;16.60;;;5.87;;
54787;SDS011;59598;48.112;16.280;2022-12-18T05:22:41;10.33;;;5.67;;
54787;SDS011;59598;48.112;16.280;2022-12-18T05:25:17;6.57;;;5.87;;
54787;SDS011;59598;48.112;16.280;2022-12-18T05:27:55;10.73;;;5.67;;
54787;SDS011;59598;48.112;16.280;2022-12-18T05:30:29;14.20;;;6.50;;
54787;SDS011;59598;48.112;16.280;2022-12-18T05:33:01;9.73;;;5.13;;
54787;SDS011;59598;48.112;16.280;2022-12-18T05:35:42;14.13;;;7.53;;
54787;SDS011;59598;48.112;16.280;2022-12-18T05:38:14;8.90;;;5.43;;
54787;SDS011;59598;48.112;16.280;2022-12-18T05:40:52;12.47;;;6.60;;
54787;SDS011;59598;48.112;16.280;2022-12-18T05:43:29;12.10;;;6.53;;
54787;SDS011;59598;48.112;16.280;2022-12-18T05:46:07;13.40;;;6.33;;
54787;SDS011;59598;48.112;16.280;2022-12-18T05:48:43;8.13;;;5.33;;
54787;SDS011;59598;48.112;16.280;2022-12-18T05:51:23;9.37;;;5.80;;
54787;SDS011;59598;48.112;16.280;2022-12-18T05:53:54;6.00;;;5.40;;
54787;SDS011;59598;48.112;16.280;2022-12-18T05:56:26;4.93;;;4.07;;
54787;SDS011;59598;48.112;16.280;2022-12-18T05:59:02;22.47;;;5.93;;
54787;SDS011;59598;48.112;16.280;2022-12-18T06:01:36;7.10;;;5.53;;
54787;SDS011;59598;48.112;16.280;2022-12-18T06:04:09;12.10;;;7.20;;
54787;SDS011;59598;48.112;16.280;2022-12-18T06:06:42;12.35;;;6.10;;
54787;SDS011;59598;48.112;16.280;2022-12-18T06:09:14;12.03;;;6.37;;
54787;SDS011;59598;48.112;16.280;2022-12-18T06:11:52;11.97;;;6.40;;
54787;SDS011;59598;48.112;16.280;2022-12-18T06:14:24;12.87;;;5.83;;
54787;SDS011;59598;48.112;16.280;2022-12-18T06:16:55;8.47;;;4.73;;
54787;SDS011;59598;48.112;16.280;2022-12-18T06:19:27;16.57;;;7.10;;
54787;SDS011;59598;48.112;16.280;2022-12-18T06:21:59;11.80;;;6.47;;
54787;SDS011;59598;48.112;16.280;2022-12-18T06:24:33;9.97;;;6.23;;
54787;SDS011;59598;48.112;16.280;2022-12-18T06:29:38;13.60;;;6.83;;
54787;SDS011;59598;48.112;16.280;2022-12-18T06:32:12;10.50;;;6.30;;
54787;SDS011;59598;48.112;16.280;2022-12-18T06:34:44;15.10;;;6.30;;
54787;SDS011;59598;48.112;16.280;2022-12-18T06:37:16;10.17;;;6.20;;
54787;SDS011;59598;48.112;16.280;2022-12-18T06:39:50;11.27;;;7.10;;
54787;SDS011;59598;48.112;16.280;2022-12-18T06:42:28;12.17;;;4.80;;
54787;SDS011;59598;48.112;16.280;2022-12-18T06:45:02;8.77;;;5.47;;
54787;SDS011;59598;48.112;16.280;2022-12-18T06:47:35;5.93;;;4.27;;
54787;SDS011;59598;48.112;16.280;2022-12-18T06:50:12;9.67;;;5.57;;
54787;SDS011;59598;48.112;16.280;2022-12-18T06:52:44;13.30;;;6.90;;
54787;SDS011;59598;48.112;16.280;2022-12-18T06:57:52;13.70;;;6.38;;
54787;SDS011;59598;48.112;16.280;2022-12-18T07:03:02;10.60;;;6.20;;
54787;SDS011;59598;48.112;16.280;2022-12-18T07:05:39;9.90;;;6.37;;
54787;SDS011;59598;48.112;16.280;2022-12-18T07:08:13;9.93;;;6.20;;
54787;SDS011;59598;48.112;16.280;2022-12-18T07:10:48;12.57;;;6.43;;
54787;SDS011;59598;48.112;16.280;2022-12-18T07:13:22;19.60;;;8.77;;
54787;SDS011;59598;48.112;16.280;2022-12-18T07:16:04;16.97;;;8.90;;
54787;SDS011;59598;48.112;16.280;2022-12-18T07:18:38;10.50;;;6.13;;
54787;SDS011;59598;48.112;16.280;2022-12-18T07:21:13;9.57;;;5.83;;
54787;SDS011;59598;48.112;16.280;2022-12-18T07:23:50;11.73;;;6.83;;
54787;SDS011;59598;48.112;16.280;2022-12-18T07:26:21;13.63;;;6.80;;
54787;SDS011;59598;48.112;16.280;2022-12-18T07:28:58;16.47;;;8.50;;
54787;SDS011;59598;48.112;16.280;2022-12-18T07:31:29;15.87;;;8.67;;
54787;SDS011;59598;48.112;16.280;2022-12-18T08:02:42;24.33;;;12.67;;
54787;SDS011;59598;48.112;16.280;2022-12-18T08:05:18;29.15;;;14.30;;
54787;SDS011;59598;48.112;16.280;2022-12-18T08:07:53;28.83;;;14.33;;
54787;SDS011;59598;48.112;16.280;2022-12-18T08:10:27;24.63;;;13.50;;
54787;SDS011;59598;48.112;16.280;2022-12-18T08:13:01;29.83;;;14.57;;
54787;SDS011;59598;48.112;16.280;2022-12-18T08:15:35;27.90;;;15.15;;
54787;SDS011;59598;48.112;16.280;2022-12-18T08:18:12;40.53;;;18.10;;
54787;SDS011;59598;48.112;16.280;2022-12-18T08:20:44;27.67;;;14.33;;
54787;SDS011;59598;48.112;16.280;2022-12-18T08:23:18;24.90;;;12.55;;
54787;SDS011;59598;48.112;16.280;2022-12-18T08:25:53;28.47;;;15.57;;
54787;SDS011;59598;48.112;16.280;2022-12-18T08:28:27;33.63;;;13.60;;
54787;SDS011;59598;48.112;16.280;2022-12-18T08:30:58;27.63;;;13.98;;
54787;SDS011;59598;48.112;16.280;2022-12-18T08:33:30;27.47;;;13.53;;
54787;SDS011;59598;48.112;16.280;2022-12-18T08:36:02;24.03;;;13.30;;
54787;SDS011;59598;48.112;16.280;2022-12-18T08:38:37;23.43;;;12.83;;
54787;SDS011;59598;48.112;16.280;2022-12-18T08:41:13;19.13;;;11.70;;
54787;SDS011;59598;48.112;16.280;2022-12-18T08:43:48;22.00;;;11.88;;
54787;SDS011;59598;48.112;16.280;2022-12-18T08:46:39;22.58;;;12.57;;
54787;SDS011;59598;48.112;16.280;2022-12-18T08:49:12;21.73;;;10.70;;
54787;SDS011;59598;48.112;16.280;2022-12-18T08:51:43;22.45;;;11.57;;
54787;SDS011;59598;48.112;16.280;2022-12-18T08:54:14;20.17;;;10.80;;
54787;SDS011;59598;48.112;16.280;2022-12-18T08:56:48;16.55;;;9.73;;
54787;SDS011;59598;48.112;16.280;2022-12-18T08:59:30;16.67;;;10.03;;
54787;SDS011;59598;48.112;16.280;2022-12-18T09:02:01;18.23;;;10.30;;
54787;SDS011;59598;48.112;16.280;2022-12-18T09:04:33;23.50;;;9.75;;
54787;SDS011;59598;48.112;16.280;2022-12-18T09:07:07;18.05;;;10.02;;
54787;SDS011;59598;48.112;16.280;2022-12-18T09:09:38;22.80;;;10.38;;
54787;SDS011;59598;48.112;16.280;2022-12-18T09:12:14;17.42;;;10.13;;
54787;SDS011;59598;48.112;16.280;2022-12-18T09:14:46;20.55;;;11.13;;
54787;SDS011;59598;48.112;16.280;2022-12-18T09:17:17;27.05;;;11.85;;
54787;SDS011;59598;48.112;16.280;2022-12-18T09:19:49;21.83;;;11.73;;
54787;SDS011;59598;48.112;16.280;2022-12-18T09:22:20;20.77;;;11.05;;
54787;SDS011;59598;48.112;16.280;2022-12-18T09:24:56;20.80;;;10.25;;
54787;SDS011;59598;48.112;16.280;2022-12-18T09:27:27;18.67;;;10.88;;
54787;SDS011;59598;48.112;16.280;2022-12-18T09:30:00;20.52;;;11.07;;
54787;SDS011;59598;48.112;16.280;2022-12-18T09:32:35;23.08;;;12.02;;
54787;SDS011;59598;48.112;16.280;2022-12-18T09:35:07;19.70;;;10.48;;
54787;SDS011;59598;48.112;16.280;2022-12-18T09:37:38;18.75;;;9.18;;
54787;SDS011;59598;48.112;16.280;2022-12-18T09:40:18;18.83;;;8.88;;
54787;SDS011;59598;48.112;16.280;2022-12-18T09:42:54;20.23;;;8.98;;
54787;SDS011;59598;48.112;16.280;2022-12-18T09:45:38;19.23;;;9.48;;
54787;SDS011;59598;48.112;16.280;2022-12-18T09:48:28;19.35;;;9.30;;
54787;SDS011;59598;48.112;16.280;2022-12-18T09:51:13;21.90;;;10.90;;
54787;SDS011;59598;48.112;16.280;2022-12-18T09:53:50;19.35;;;9.32;;
54787;SDS011;59598;48.112;16.280;2022-12-18T09:56:28;18.45;;;10.55;;
54787;SDS011;59598;48.112;16.280;2022-12-18T09:59:02;19.80;;;10.55;;
54787;SDS011;59598;48.112;16.280;2022-12-18T10:01:39;22.05;;;11.43;;
54787;SDS011;59598;48.112;16.280;2022-12-18T10:04:10;19.23;;;9.27;;
54787;SDS011;59598;48.112;16.280;2022-12-18T10:06:50;19.67;;;8.30;;
54787;SDS011;59598;48.112;16.280;2022-12-18T10:09:33;21.52;;;10.48;;
54787;SDS011;59598;48.112;16.280;2022-12-18T10:12:23;25.98;;;10.38;;
54787;SDS011;59598;48.112;16.280;2022-12-18T10:15:16;20.52;;;9.57;;
54787;SDS011;59598;48.112;16.280;2022-12-18T10:20:55;18.95;;;10.27;;
54787;SDS011;59598;48.112;16.280;2022-12-18T10:24:38;21.08;;;9.98;;
54787;SDS011;59598;48.112;16.280;2022-12-18T10:26:46;17.27;;;9.70;;
54787;SDS011;59598;48.112;16.280;2022-12-18T10:29:18;20.52;;;9.45;;
54787;SDS011;59598;48.112;16.280;2022-12-18T10:31:50;15.85;;;9.25;;
54787;SDS011;59598;48.112;16.280;2022-12-18T10:34:24;18.35;;;9.82;;
54787;SDS011;59598;48.112;16.280;2022-12-18T10:36:57;19.25;;;9.93;;
54787;SDS011;59598;48.112;16.280;2022-12-18T10:39:39;23.95;;;9.57;;
54787;SDS011;59598;48.112;16.280;2022-12-18T10:42:13;23.00;;;9.93;;
54787;SDS011;59598;48.112;16.280;2022-12-18T10:44:54;21.88;;;10.23;;
54787;SDS011;59598;48.112;16.280;2022-12-18T10:47:43;20.30;;;9.70;;
54787;SDS011;59598;48.112;16.280;2022-12-18T10:50:23;18.85;;;10.25;;
54787;SDS011;59598;48.112;16.280;2022-12-18T10:53:03;20.00;;;10.57;;
54787;SDS011;59598;48.112;16.280;2022-12-18T10:55:36;29.10;;;12.90;;
54787;SDS011;59598;48.112;16.280;2022-12-18T10:58:29;23.33;;;11.53;;
54787;SDS011;59598;48.112;16.280;2022-12-18T11:03:38;33.03;;;13.88;;
54787;SDS011;59598;48.112;16.280;2022-12-18T11:06:17;21.02;;;11.95;;
54787;SDS011;59598;48.112;16.280;2022-12-18T11:09:02;18.02;;;8.90;;
54787;SDS011;59598;48.112;16.280;2022-12-18T11:11:35;22.38;;;9.93;;
54787;SDS011;59598;48.112;16.280;2022-12-18T11:14:19;24.37;;;11.37;;
54787;SDS011;59598;48.112;16.280;2022-12-18T11:16:59;27.45;;;13.05;;
54787;SDS011;59598;48.112;16.280;2022-12-18T11:19:35;25.42;;;11.70;;
54787;SDS011;59598;48.112;16.280;2022-12-18T11:22:20;20.88;;;11.65;;
54787;SDS011;59598;48.112;16.280;2022-12-18T11:24:59;22.20;;;10.77;;
54787;SDS011;59598;48.112;16.280;2022-12-18T11:27:52;22.35;;;10.55;;
54787;SDS011;59598;48.112;16.280;2022-12-18T11:33:18;21.92;;;10.05;;
54787;SDS011;59598;48.112;16.280;2022-12-18T11:35:58;22.13;;;10.65;;
54787;SDS011;59598;48.112;16.280;2022-12-18T11:38:34;23.15;;;10.23;;
54787;SDS011;59598;48.112;16.280;2022-12-18T11:41:16;21.25;;;10.05;;
54787;SDS011;59598;48.112;16.280;2022-12-18T11:43:55;20.65;;;10.25;;
54787;SDS011;59598;48.112;16.280;2022-12-18T11:46:33;22.90;;;11.43;;
54787;SDS011;59598;48.112;16.280;2022-12-18T11:54:35;22.88;;;10.20;;
54787;SDS011;59598;48.112;16.280;2022-12-18T12:11:39;27.35;;;11.25;;
54787;SDS011;59598;48.112;16.280;2022-12-18T12:20:45;18.23;;;10.98;;
54787;SDS011;59598;48.112;16.280;2022-12-18T12:26:42;23.83;;;11.02;;
54787;SDS011;59598;48.112;16.280;2022-12-18T12:38:00;23.42;;;12.63;;
54787;SDS011;59598;48.112;16.280;2022-12-18T12:40:52;22.17;;;11.27;;
54787;SDS011;59598;48.112;16.280;2022-12-18T12:43:57;20.05;;;10.90;;
54787;SDS011;59598;48.112;16.280;2022-12-18T12:46:36;25.95;;;12.25;;
54787;SDS011;59598;48.112;16.280;2022-12-18T12:49:16;23.60;;;10.82;;
54787;SDS011;59598;48.112;16.280;2022-12-18T12:51:57;24.90;;;12.40;;
54787;SDS011;59598;48.112;16.280;2022-12-18T12:54:38;23.02;;;12.55;;
54787;SDS011;59598;48.112;16.280;2022-12-18T12:57:16;24.83;;;11.07;;
54787;SDS011;59598;48.112;16.280;2022-12-18T13:00:14;26.45;;;11.60;;
54787;SDS011;59598;48.112;16.280;2022-12-18T13:02:57;25.75;;;13.25;;
54787;SDS011;59598;48.112;16.280;2022-12-18T13:05:45;23.92;;;11.75;;
54787;SDS011;59598;48.112;16.280;2022-12-18T13:08:26;23.10;;;12.02;;
54787;SDS011;59598;48.112;16.280;2022-12-18T13:11:04;24.27;;;11.88;;
54787;SDS011;59598;48.112;16.280;2022-12-18T13:14:26;23.95;;;12.43;;
54787;SDS011;59598;48.112;16.280;2022-12-18T13:22:40;28.38;;;12.25;;
54787;SDS011;59598;48.112;16.280;2022-12-18T13:28:11;27.35;;;12.13;;
54787;SDS011;59598;48.112;16.280;2022-12-18T13:39:15;25.35;;;11.70;;
54787;SDS011;59598;48.112;16.280;2022-12-18T13:44:36;26.63;;;13.13;;
54787;SDS011;59598;48.112;16.280;2022-12-18T13:50:09;24.70;;;12.65;;
54787;SDS011;59598;48.112;16.280;2022-12-18T13:52:59;29.80;;;13.10;;
54787;SDS011;59598;48.112;16.280;2022-12-18T13:55:32;24.10;;;12.18;;
54787;SDS011;59598;48.112;16.280;2022-12-18T13:58:05;25.85;;;12.75;;
54787;SDS011;59598;48.112;16.280;2022-12-18T14:00:40;23.40;;;13.07;;
54787;SDS011;59598;48.112;16.280;2022-12-18T14:03:18;24.35;;;12.15;;
54787;SDS011;59598;48.112;16.280;2022-12-18T14:05:59;21.25;;;11.75;;
54787;SDS011;59598;48.112;16.280;2022-12-18T14:08:41;23.33;;;11.52;;
54787;SDS011;59598;48.112;16.280;2022-12-18T14:11:20;26.90;;;12.40;;
54787;SDS011;59598;48.112;16.280;2022-12-18T14:13:53;22.77;;;12.52;;
54787;SDS011;59598;48.112;16.280;2022-12-18T14:16:25;28.77;;;12.88;;
54787;SDS011;59598;48.112;16.280;2022-12-18T14:18:57;24.97;;;12.77;;
54787;SDS011;59598;48.112;16.280;2022-12-18T14:21:29;21.35;;;10.63;;
54787;SDS011;59598;48.112;16.280;2022-12-18T14:29:18;23.02;;;11.60;;
54787;SDS011;59598;48.112;16.280;2022-12-18T14:32:05;25.25;;;12.98;;
54787;SDS011;59598;48.112;16.280;2022-12-18T14:34:48;23.60;;;11.98;;
54787;SDS011;59598;48.112;16.280;2022-12-18T14:37:26;27.50;;;14.30;;
54787;SDS011;59598;48.112;16.280;2022-12-18T14:39:58;25.67;;;11.40;;
54787;SDS011;59598;48.112;16.280;2022-12-18T14:42:31;25.80;;;13.60;;
54787;SDS011;59598;48.112;16.280;2022-12-18T14:48:33;23.13;;;12.40;;
54787;SDS011;59598;48.112;16.280;2022-12-18T14:53:53;36.42;;;14.65;;
54787;SDS011;59598;48.112;16.280;2022-12-18T14:56:36;26.27;;;11.93;;
54787;SDS011;59598;48.112;16.280;2022-12-18T14:59:38;28.52;;;14.27;;
54787;SDS011;59598;48.112;16.280;2022-12-18T15:07:43;32.13;;;13.10;;
54787;SDS011;59598;48.112;16.280;2022-12-18T15:10:16;36.13;;;15.93;;
54787;SDS011;59598;48.112;16.280;2022-12-18T15:18:11;34.58;;;15.40;;
54787;SDS011;59598;48.112;16.280;2022-12-18T15:20:52;32.80;;;15.17;;
54787;SDS011;59598;48.112;16.280;2022-12-18T15:23:50;33.78;;;15.77;;
54787;SDS011;59598;48.112;16.280;2022-12-18T15:26:23;26.00;;;12.85;;
54787;SDS011;59598;48.112;16.280;2022-12-18T15:28:55;31.43;;;15.40;;
54787;SDS011;59598;48.112;16.280;2022-12-18T15:31:34;32.50;;;15.15;;
54787;SDS011;59598;48.112;16.280;2022-12-18T15:34:19;30.58;;;14.50;;
54787;SDS011;59598;48.112;16.280;2022-12-18T15:36:52;36.30;;;14.07;;
54787;SDS011;59598;48.112;16.280;2022-12-18T15:39:23;26.65;;;13.45;;
54787;SDS011;59598;48.112;16.280;2022-12-18T15:41:55;30.15;;;13.18;;
54787;SDS011;59598;48.112;16.280;2022-12-18T15:44:47;27.95;;;13.65;;
54787;SDS011;59598;48.112;16.280;2022-12-18T15:47:19;25.77;;;12.37;;
54787;SDS011;59598;48.112;16.280;2022-12-18T15:49:55;26.95;;;12.55;;
54787;SDS011;59598;48.112;16.280;2022-12-18T15:52:39;26.80;;;12.55;;
54787;SDS011;59598;48.112;16.280;2022-12-18T15:55:30;24.45;;;13.52;;
54787;SDS011;59598;48.112;16.280;2022-12-18T15:58:20;30.42;;;14.10;;
54787;SDS011;59598;48.112;16.280;2022-12-18T16:00:51;38.45;;;12.95;;
54787;SDS011;59598;48.112;16.280;2022-12-18T16:03:25;33.20;;;13.52;;
54787;SDS011;59598;48.112;16.280;2022-12-18T16:05:56;25.90;;;13.40;;
54787;SDS011;59598;48.112;16.280;2022-12-18T16:08:29;25.20;;;14.30;;
54787;SDS011;59598;48.112;16.280;2022-12-18T16:11:00;31.90;;;15.40;;
54787;SDS011;59598;48.112;16.280;2022-12-18T16:13:32;27.77;;;15.30;;
54787;SDS011;59598;48.112;16.280;2022-12-18T16:16:09;28.20;;;13.82;;
54787;SDS011;59598;48.112;16.280;2022-12-18T16:18:43;41.30;;;14.27;;
54787;SDS011;59598;48.112;16.280;2022-12-18T16:21:14;27.23;;;13.68;;
54787;SDS011;59598;48.112;16.280;2022-12-18T16:23:48;30.80;;;14.77;;
54787;SDS011;59598;48.112;16.280;2022-12-18T16:26:20;30.13;;;12.93;;
54787;SDS011;59598;48.112;16.280;2022-12-18T16:28:51;31.10;;;14.10;;
54787;SDS011;59598;48.112;16.280;2022-12-18T16:31:23;29.92;;;13.07;;
54787;SDS011;59598;48.112;16.280;2022-12-18T16:36:41;32.53;;;15.20;;
54787;SDS011;59598;48.112;16.280;2022-12-18T16:39:12;32.03;;;13.40;;
54787;SDS011;59598;48.112;16.280;2022-12-18T16:41:46;30.67;;;15.95;;
54787;SDS011;59598;48.112;16.280;2022-12-18T16:44:18;26.30;;;14.35;;
54787;SDS011;59598;48.112;16.280;2022-12-18T16:46:51;30.85;;;15.25;;
54787;SDS011;59598;48.112;16.280;2022-12-18T16:49:23;26.90;;;13.75;;
54787;SDS011;59598;48.112;16.280;2022-12-18T16:54:31;29.42;;;12.75;;
54787;SDS011;59598;48.112;16.280;2022-12-18T16:57:08;26.40;;;11.68;;
54787;SDS011;59598;48.112;16.280;2022-12-18T16:59:41;24.13;;;11.02;;
54787;SDS011;59598;48.112;16.280;2022-12-18T17:02:13;25.02;;;12.00;;
54787;SDS011;59598;48.112;16.280;2022-12-18T17:04:51;25.15;;;12.63;;
54787;SDS011;59598;48.112;16.280;2022-12-18T17:07:23;28.45;;;13.68;;
54787;SDS011;59598;48.112;16.280;2022-12-18T17:09:55;25.38;;;13.25;;
54787;SDS011;59598;48.112;16.280;2022-12-18T17:12:27;26.00;;;13.07;;
54787;SDS011;59598;48.112;16.280;2022-12-18T17:14:58;28.70;;;11.93;;
54787;SDS011;59598;48.112;16.280;2022-12-18T17:17:29;17.35;;;10.55;;
54787;SDS011;59598;48.112;16.280;2022-12-18T17:20:05;28.93;;;11.27;;
54787;SDS011;59598;48.112;16.280;2022-12-18T17:22:37;25.92;;;12.55;;
54787;SDS011;59598;48.112;16.280;2022-12-18T17:25:08;27.87;;;13.27;;
54787;SDS011;59598;48.112;16.280;2022-12-18T17:27:41;25.27;;;13.43;;
54787;SDS011;59598;48.112;16.280;2022-12-18T17:30:13;22.60;;;10.90;;
54787;SDS011;59598;48.112;16.280;2022-12-18T17:32:47;25.33;;;12.80;;
54787;SDS011;59598;48.112;16.280;2022-12-18T17:35:18;26.05;;;12.93;;
54787;SDS011;59598;48.112;16.280;2022-12-18T17:37:52;26.95;;;13.38;;
54787;SDS011;59598;48.112;16.280;2022-12-18T17:43:00;24.80;;;12.57;;
54787;SDS011;59598;48.112;16.280;2022-12-18T17:45:34;27.05;;;13.00;;
54787;SDS011;59598;48.112;16.280;2022-12-18T17:48:09;22.45;;;11.10;;
54787;SDS011;59598;48.112;16.280;2022-12-18T17:50:43;24.58;;;12.82;;
54787;SDS011;59598;48.112;16.280;2022-12-18T17:53:15;24.63;;;11.40;;
54787;SDS011;59598;48.112;16.280;2022-12-18T17:55:58;22.60;;;11.27;;
54787;SDS011;59598;48.112;16.280;2022-12-18T17:58:36;22.10;;;10.50;;
54787;SDS011;59598;48.112;16.280;2022-12-18T18:01:11;26.58;;;12.30;;